createdAt,value
2019-05-19T00:02:28.177Z,11.60
2019-05-19T00:04:57.136Z,11.46
2019-05-19T00:07:26.225Z,11.48
2019-05-19T00:12:33.612Z,11.61
2019-05-19T00:15:02.296Z,11.37
2019-05-19T00:17:31.304Z,11.33
2019-05-19T00:20:00.390Z,11.47
2019-05-19T00:22:29.751Z,11.20
2019-05-19T00:27:45.327Z,11.16
2019-05-19T00:30:14.592Z,11.21
2019-05-19T00:32:43.391Z,11.04
2019-05-19T00:35:12.482Z,11.22
2019-05-19T00:37:41.466Z,10.92
2019-05-19T00:42:49.872Z,11.37
2019-05-19T00:45:18.767Z,11.36
2019-05-19T00:47:47.417Z,11.33
2019-05-19T00:50:16.233Z,11.27
2019-05-19T00:52:45.548Z,11.11
2019-05-19T00:55:14.554Z,11.20
2019-05-19T01:00:21.983Z,11.16
2019-05-19T01:05:28.335Z,11.14
2019-05-19T01:07:57.136Z,11.09
2019-05-19T01:10:25.812Z,11.08
2019-05-19T01:12:54.974Z,11.07
2019-05-19T01:18:02.253Z,11.09
2019-05-19T01:20:32.893Z,11.05
2019-05-19T01:23:02.166Z,10.98
2019-05-19T01:25:30.903Z,11.00
2019-05-19T01:27:59.604Z,10.93
2019-05-19T01:30:29.176Z,10.93
2019-05-19T01:35:38.542Z,11.07
2019-05-19T01:40:44.930Z,11.04
2019-05-19T01:43:13.958Z,11.03
2019-05-19T01:45:42.688Z,10.98
2019-05-19T01:48:11.858Z,10.99
2019-05-19T01:53:21.172Z,10.62
2019-05-19T01:55:50.280Z,10.74
2019-05-19T01:58:19.479Z,10.73
2019-05-19T02:00:48.341Z,10.60
2019-05-19T02:03:18.374Z,10.63
2019-05-19T02:08:33.190Z,10.25
2019-05-19T02:11:01.875Z,10.00
2019-05-19T02:13:30.653Z,10.00
2019-05-19T02:16:00.638Z,9.89
2019-05-19T02:21:10.026Z,10.24
2019-05-19T02:23:40.571Z,10.22
2019-05-19T02:26:10.107Z,9.90
2019-05-19T02:28:38.942Z,10.11
2019-05-19T02:31:07.687Z,10.21
2019-05-19T02:33:39.904Z,10.25
2019-05-19T02:36:08.626Z,10.10
2019-05-19T02:38:37.570Z,10.18
2019-05-19T02:41:09.208Z,10.28
2019-05-19T02:43:38.926Z,10.16
2019-05-19T02:46:09.022Z,10.03
2019-05-19T02:48:39.599Z,10.15
2019-05-19T02:51:12.061Z,10.11
2019-05-19T02:53:43.853Z,10.16
2019-05-19T02:56:13.413Z,9.89
2019-05-19T03:01:22.425Z,9.95
2019-05-19T03:06:28.618Z,9.98
2019-05-19T03:08:57.792Z,9.96
2019-05-19T03:14:16.727Z,9.90
2019-05-19T03:16:45.742Z,9.74
2019-05-19T03:19:14.430Z,9.73
2019-05-19T03:24:23.649Z,9.97
2019-05-19T03:26:53.604Z,9.94
2019-05-19T03:32:28.392Z,9.80
2019-05-19T03:37:37.273Z,9.47
2019-05-19T03:40:19.138Z,9.35
2019-05-19T03:42:50.129Z,9.34
2019-05-19T03:45:18.966Z,9.50
2019-05-19T03:47:47.591Z,9.37
2019-05-19T03:50:16.503Z,9.61
2019-05-19T03:52:45.177Z,9.43
2019-05-19T03:55:14.220Z,9.34
2019-05-19T03:57:43.398Z,9.35
2019-05-19T04:02:55.955Z,9.32
2019-05-19T04:08:02.135Z,9.47
2019-05-19T04:10:30.834Z,9.62
2019-05-19T04:15:44.037Z,9.50
2019-05-19T04:18:12.741Z,9.44
2019-05-19T04:20:42.012Z,9.66
2019-05-19T04:23:11.146Z,9.75
2019-05-19T04:25:39.949Z,9.75
2019-05-19T04:30:46.178Z,10.13
2019-05-19T04:33:15.516Z,10.17
2019-05-19T04:35:44.565Z,10.27
2019-05-19T04:38:13.587Z,10.36
2019-05-19T04:40:42.647Z,10.40
2019-05-19T04:45:50.330Z,10.55
2019-05-19T04:48:19.328Z,10.56
2019-05-19T04:50:47.979Z,10.62
2019-05-19T04:55:54.726Z,10.78
2019-05-19T05:01:04.253Z,10.93
2019-05-19T05:03:33.512Z,10.95
2019-05-19T05:08:40.758Z,11.14
2019-05-19T05:13:50.831Z,11.27
2019-05-19T05:16:19.491Z,11.32
2019-05-19T05:21:28.969Z,11.49
2019-05-19T05:23:57.640Z,11.62
2019-05-19T05:26:27.046Z,11.73
2019-05-19T05:28:55.697Z,11.79
2019-05-19T05:31:24.366Z,11.85
2019-05-19T05:36:33.206Z,12.20
2019-05-19T05:39:01.943Z,12.05
2019-05-19T05:41:30.612Z,12.12
2019-05-19T05:43:59.306Z,12.22
2019-05-19T05:46:28.422Z,12.08
2019-05-19T05:48:57.750Z,12.18
2019-05-19T05:54:03.988Z,12.79
2019-05-19T05:56:33.474Z,12.82
2019-05-19T06:01:42.055Z,13.08
2019-05-19T06:04:11.080Z,13.07
2019-05-19T06:06:39.815Z,13.05
2019-05-19T06:09:09.409Z,13.22
2019-05-19T06:11:38.515Z,13.30
2019-05-19T06:16:47.786Z,13.66
2019-05-19T06:19:16.409Z,13.76
2019-05-19T06:21:45.056Z,14.05
2019-05-19T06:24:13.709Z,13.94
2019-05-19T06:29:23.259Z,14.51
2019-05-19T06:34:47.419Z,14.78
2019-05-19T06:37:16.489Z,14.93
2019-05-19T06:39:45.184Z,15.01
2019-05-19T06:42:14.920Z,15.31
2019-05-19T06:44:44.192Z,15.50
2019-05-19T06:47:13.232Z,15.62
2019-05-19T06:52:23.110Z,15.99
2019-05-19T06:54:52.309Z,16.06
2019-05-19T06:57:20.996Z,16.05
2019-05-19T06:59:49.693Z,16.37
2019-05-19T07:04:59.361Z,16.74
2019-05-19T07:07:28.043Z,16.67
2019-05-19T07:09:58.890Z,16.99
2019-05-19T07:12:27.620Z,16.96
2019-05-19T07:17:41.768Z,17.38
2019-05-19T07:20:11.232Z,17.38
2019-05-19T07:25:20.098Z,17.62
2019-05-19T07:27:48.764Z,18.04
2019-05-19T07:30:18.339Z,18.29
2019-05-19T07:32:47.044Z,18.49
2019-05-19T07:35:15.700Z,18.34
2019-05-19T07:37:44.707Z,18.39
2019-05-19T07:42:53.525Z,18.79
2019-05-19T07:48:02.321Z,19.46
2019-05-19T07:50:30.955Z,19.36
2019-05-19T07:55:37.901Z,19.66
2019-05-19T07:58:07.005Z,20.00
2019-05-19T08:00:36.416Z,20.07
2019-05-19T08:03:05.486Z,20.11
2019-05-19T08:05:34.960Z,20.76
2019-05-19T08:08:04.038Z,20.70
2019-05-19T08:10:33.084Z,20.93
2019-05-19T08:13:01.720Z,20.98
2019-05-19T08:15:30.686Z,20.89
2019-05-19T08:17:59.491Z,20.95
2019-05-19T08:20:28.504Z,21.27
2019-05-19T08:22:57.137Z,21.74
2019-05-19T08:25:26.652Z,21.77
2019-05-19T08:30:33.976Z,22.24
2019-05-19T08:33:03.089Z,22.60
2019-05-19T08:35:31.800Z,22.36
2019-05-19T08:38:00.867Z,22.67
2019-05-19T08:40:29.951Z,22.84
2019-05-19T08:45:36.915Z,23.17
2019-05-19T08:48:07.506Z,23.24
2019-05-19T08:50:36.371Z,23.26
2019-05-19T08:53:05.045Z,23.48
2019-05-19T08:55:33.713Z,23.71
2019-05-19T09:00:41.147Z,23.48
2019-05-19T09:03:09.812Z,23.77
2019-05-19T09:05:38.575Z,24.35
2019-05-19T09:08:08.227Z,23.90
2019-05-19T09:10:36.851Z,23.52
2019-05-19T09:13:05.585Z,24.51
2019-05-19T09:15:34.303Z,23.50
2019-05-19T09:18:03.350Z,24.43
2019-05-19T09:23:11.898Z,24.58
2019-05-19T09:25:41.026Z,24.50
2019-05-19T09:30:47.630Z,23.90
2019-05-19T09:33:16.300Z,24.53
2019-05-19T09:35:44.956Z,23.42
2019-05-19T09:38:14.685Z,23.15
2019-05-19T09:40:43.299Z,23.75
2019-05-19T09:45:50.105Z,24.37
2019-05-19T09:48:19.230Z,23.89
2019-05-19T09:50:47.905Z,23.51
2019-05-19T09:53:16.641Z,23.66
2019-05-19T09:55:45.744Z,23.84
2019-05-19T09:58:18.978Z,24.20
2019-05-19T10:03:24.327Z,25.13
2019-05-19T10:05:53.272Z,25.34
2019-05-19T10:12:00.364Z,24.66
2019-05-19T10:14:29.428Z,24.45
2019-05-19T10:16:58.472Z,24.52
2019-05-19T10:19:27.139Z,25.27
2019-05-19T10:21:55.885Z,25.02
2019-05-19T10:24:24.531Z,25.03
2019-05-19T10:26:53.539Z,24.95
2019-05-19T10:29:22.279Z,24.44
2019-05-19T10:31:54.302Z,23.93
2019-05-19T10:37:00.506Z,25.21
2019-05-19T10:39:29.572Z,25.17
2019-05-19T10:41:58.641Z,24.66
2019-05-19T10:44:27.304Z,25.10
2019-05-19T10:46:56.016Z,25.54
2019-05-19T10:49:25.639Z,25.11
2019-05-19T10:51:54.753Z,25.28
2019-05-19T10:54:23.479Z,24.25
2019-05-19T10:56:53.059Z,24.81
2019-05-19T10:59:22.441Z,25.87
2019-05-19T11:01:51.750Z,25.73
2019-05-19T11:07:00.856Z,24.88
2019-05-19T11:09:30.013Z,24.20
2019-05-19T11:11:59.140Z,24.95
2019-05-19T11:14:27.840Z,24.66
2019-05-19T11:16:56.936Z,24.67
2019-05-19T11:19:25.958Z,24.90
2019-05-19T11:21:54.674Z,25.13
2019-05-19T11:24:23.715Z,25.02
2019-05-19T11:26:53.387Z,25.78
2019-05-19T11:29:22.176Z,24.56
2019-05-19T11:34:30.789Z,24.30
2019-05-19T11:39:47.249Z,24.16
2019-05-19T11:42:15.862Z,24.96
2019-05-19T11:44:44.490Z,24.51
2019-05-19T11:47:13.492Z,23.78
2019-05-19T11:49:43.743Z,24.91
2019-05-19T11:52:12.608Z,25.61
2019-05-19T11:54:41.676Z,25.89
2019-05-19T11:57:10.336Z,25.04
2019-05-19T11:59:41.593Z,25.79
2019-05-19T12:02:11.649Z,25.50
2019-05-19T12:07:18.324Z,24.49
2019-05-19T12:09:47.415Z,24.39
2019-05-19T12:12:16.180Z,24.05
2019-05-19T12:14:45.238Z,24.30
2019-05-19T12:19:59.983Z,24.66
2019-05-19T12:22:29.090Z,25.21
2019-05-19T12:24:58.011Z,24.74
2019-05-19T12:30:04.655Z,25.40
2019-05-19T12:32:35.041Z,24.47
2019-05-19T12:35:04.429Z,25.04
2019-05-19T12:40:11.738Z,24.36
2019-05-19T12:42:40.482Z,24.38
2019-05-19T12:45:10.457Z,24.10
2019-05-19T12:47:39.207Z,24.34
2019-05-19T12:52:53.048Z,24.83
2019-05-19T12:55:22.860Z,25.48
2019-05-19T12:57:51.594Z,25.38
2019-05-19T13:00:20.915Z,25.96
2019-05-19T13:02:50.205Z,25.38
2019-05-19T13:05:19.232Z,24.37
2019-05-19T13:07:48.232Z,24.19
2019-05-19T13:10:17.471Z,24.40
2019-05-19T13:15:27.110Z,25.71
2019-05-19T13:17:55.757Z,25.10
2019-05-19T13:23:08.417Z,24.96
2019-05-19T13:25:37.356Z,25.42
2019-05-19T13:28:06.444Z,24.85
2019-05-19T13:30:35.136Z,24.36
2019-05-19T13:33:03.811Z,24.16
2019-05-19T13:35:32.834Z,24.34
2019-05-19T13:38:01.935Z,24.31
2019-05-19T13:40:31.751Z,24.37
2019-05-19T13:43:00.765Z,24.84
2019-05-19T13:45:29.848Z,24.51
2019-05-19T13:47:58.477Z,24.52
2019-05-19T13:50:27.521Z,24.95
2019-05-19T13:52:56.637Z,24.28
2019-05-19T13:55:25.657Z,24.58
2019-05-19T13:57:54.346Z,24.17
2019-05-19T14:00:23.062Z,24.05
2019-05-19T14:02:52.196Z,24.06
2019-05-19T14:05:21.271Z,24.13
2019-05-19T14:07:50.343Z,24.44
2019-05-19T14:10:18.965Z,24.64
2019-05-19T14:15:33.411Z,24.67
2019-05-19T14:20:41.132Z,25.33
2019-05-19T14:23:10.142Z,25.24
2019-05-19T14:25:38.895Z,25.44
2019-05-19T14:28:07.604Z,25.48
2019-05-19T14:33:21.833Z,25.47
2019-05-19T14:38:29.817Z,24.77
2019-05-19T14:40:59.200Z,24.45
2019-05-19T14:46:07.258Z,24.92
2019-05-19T14:48:35.908Z,25.14
2019-05-19T14:51:04.959Z,24.96
2019-05-19T14:53:33.677Z,24.82
2019-05-19T14:56:02.456Z,25.06
2019-05-19T14:58:31.775Z,24.78
2019-05-19T15:03:41.425Z,24.59
2019-05-19T15:06:10.517Z,24.57
2019-05-19T15:11:22.134Z,24.48
2019-05-19T15:13:51.257Z,24.99
2019-05-19T15:16:19.895Z,24.87
2019-05-19T15:18:48.591Z,24.62
2019-05-19T15:21:17.609Z,24.89
2019-05-19T15:26:35.107Z,24.80
2019-05-19T15:29:04.239Z,24.69
2019-05-19T15:31:33.211Z,24.42
2019-05-19T15:34:02.237Z,24.65
2019-05-19T15:39:16.427Z,24.58
2019-05-19T15:41:45.054Z,24.36
2019-05-19T15:44:13.979Z,24.21
2019-05-19T15:46:42.654Z,24.14
2019-05-19T15:52:01.535Z,24.31
2019-05-19T15:54:25.260Z,24.25
2019-05-19T15:56:55.295Z,24.21
2019-05-19T15:59:24.686Z,24.25
2019-05-19T16:01:53.396Z,24.34
2019-05-19T16:04:22.073Z,24.41
2019-05-19T16:06:50.974Z,24.70
2019-05-19T16:09:19.650Z,24.43
2019-05-19T16:14:38.103Z,24.62
2019-05-19T16:19:44.323Z,24.83
2019-05-19T16:22:13.392Z,24.77
2019-05-19T16:24:42.027Z,24.78
2019-05-19T16:29:49.562Z,24.60
2019-05-19T16:35:03.424Z,25.02
2019-05-19T16:37:32.455Z,24.71
2019-05-19T16:40:01.754Z,24.68
2019-05-19T16:42:30.465Z,24.73
2019-05-19T16:47:43.589Z,24.81
2019-05-19T16:50:12.551Z,24.64
2019-05-19T16:52:41.275Z,24.98
2019-05-19T16:55:24.500Z,25.13
2019-05-19T17:00:33.526Z,24.54
2019-05-19T17:05:48.789Z,24.73
2019-05-19T17:08:19.100Z,24.60
2019-05-19T17:10:48.031Z,24.76
2019-05-19T17:16:03.907Z,24.73
2019-05-19T17:18:32.942Z,24.39
2019-05-19T17:21:01.586Z,24.42
2019-05-19T17:23:30.742Z,24.60
2019-05-19T17:25:59.572Z,24.28
2019-05-19T17:28:28.227Z,24.35
2019-05-19T17:30:57.001Z,24.47
2019-05-19T17:33:26.549Z,24.26
2019-05-19T17:35:55.278Z,24.20
2019-05-19T17:41:05.118Z,24.24
2019-05-19T17:43:33.809Z,24.19
2019-05-19T17:46:02.937Z,24.03
2019-05-19T17:48:31.627Z,24.04
2019-05-19T17:51:00.351Z,23.88
2019-05-19T17:53:29.531Z,23.87
2019-05-19T17:58:46.053Z,23.97
2019-05-19T18:01:15.101Z,23.96
2019-05-19T18:03:44.966Z,24.02
2019-05-19T18:06:13.688Z,23.96
2019-05-19T18:08:42.803Z,23.68
2019-05-19T18:13:50.806Z,23.62
2019-05-19T18:16:19.606Z,22.95
2019-05-19T18:18:48.536Z,22.82
2019-05-19T18:21:17.186Z,22.52
2019-05-19T18:23:46.179Z,22.47
2019-05-19T18:26:14.804Z,22.20
2019-05-19T18:28:43.879Z,22.13
2019-05-19T18:33:49.829Z,21.94
2019-05-19T18:36:18.918Z,21.62
2019-05-19T18:38:47.626Z,21.47
2019-05-19T18:41:16.704Z,21.41
2019-05-19T18:43:45.346Z,21.36
2019-05-19T18:46:14.015Z,21.12
2019-05-19T18:51:21.602Z,21.10
2019-05-19T18:56:30.358Z,21.07
2019-05-19T18:58:59.408Z,20.73
2019-05-19T19:01:28.488Z,20.63
2019-05-19T19:03:57.492Z,20.47
2019-05-19T19:06:31.174Z,20.37
2019-05-19T19:09:00.210Z,20.44
2019-05-19T19:14:10.477Z,20.39
2019-05-19T19:16:39.573Z,20.38
2019-05-19T19:21:48.906Z,20.22
2019-05-19T19:27:00.935Z,19.95
2019-05-19T19:29:29.888Z,19.79
2019-05-19T19:31:58.543Z,20.01
2019-05-19T19:34:27.275Z,20.06
2019-05-19T19:36:57.046Z,20.00
2019-05-19T19:39:25.760Z,19.73
2019-05-19T19:41:54.484Z,19.56
2019-05-19T19:44:23.227Z,19.50
2019-05-19T19:49:36.896Z,19.50
2019-05-19T19:52:06.242Z,19.41
2019-05-19T19:54:34.850Z,19.41
2019-05-19T19:59:43.087Z,19.41
2019-05-19T20:04:49.784Z,19.18
2019-05-19T20:07:18.429Z,19.18
2019-05-19T20:12:25.620Z,19.12
2019-05-19T20:14:54.285Z,19.07
2019-05-19T20:17:23.110Z,19.11
2019-05-19T20:19:52.485Z,18.95
2019-05-19T20:22:21.256Z,18.90
2019-05-19T20:27:31.133Z,18.84
2019-05-19T20:30:00.245Z,18.74
2019-05-19T20:35:12.845Z,18.64
2019-05-19T20:37:41.986Z,18.51
2019-05-19T20:40:11.908Z,18.50
2019-05-19T20:42:41.315Z,18.51
2019-05-19T20:45:10.105Z,18.47
2019-05-19T20:47:38.801Z,18.37
2019-05-19T20:50:07.625Z,18.43
2019-05-19T20:55:16.232Z,18.41
2019-05-19T20:57:44.874Z,18.27
2019-05-19T21:06:48.638Z,18.16
2019-05-19T21:09:17.753Z,18.07
2019-05-19T21:11:46.708Z,18.13
2019-05-19T21:14:15.514Z,18.04
2019-05-19T21:16:44.181Z,17.95
2019-05-19T21:21:51.370Z,17.88
2019-05-19T21:24:20.016Z,17.78
2019-05-19T21:29:36.142Z,17.79
2019-05-19T21:32:05.394Z,17.69
2019-05-19T21:34:34.071Z,17.53
2019-05-19T21:37:02.770Z,17.62
2019-05-19T21:39:31.567Z,17.55
2019-05-19T21:42:00.254Z,17.50
2019-05-19T21:44:29.979Z,17.47
2019-05-19T21:49:38.625Z,17.44
2019-05-19T21:52:07.712Z,17.32
2019-05-19T21:54:36.786Z,17.29
2019-05-19T21:57:05.483Z,17.29
2019-05-19T21:59:34.130Z,17.20
2019-05-19T22:02:02.891Z,17.09
2019-05-19T22:07:16.484Z,17.03
2019-05-19T22:09:45.858Z,17.01
2019-05-19T22:12:14.857Z,16.92
2019-05-19T22:17:25.627Z,16.95
2019-05-19T22:19:54.314Z,16.83
2019-05-19T22:22:23.911Z,16.82
2019-05-19T22:27:40.712Z,16.73
2019-05-19T22:30:10.215Z,16.65
2019-05-19T22:32:38.857Z,16.64
2019-05-19T22:35:12.191Z,16.61
2019-05-19T22:37:41.360Z,16.54
2019-05-19T22:40:10.354Z,16.47
2019-05-19T22:42:39.245Z,16.45
2019-05-19T22:45:08.275Z,16.43
2019-05-19T22:47:37.998Z,16.42
2019-05-19T22:52:47.455Z,16.36
2019-05-19T22:55:16.119Z,16.29
2019-05-19T22:57:45.078Z,16.21
2019-05-19T23:00:16.445Z,16.22
2019-05-19T23:02:44.997Z,16.20
2019-05-19T23:07:53.574Z,16.19
2019-05-19T23:13:00.425Z,16.10
2019-05-19T23:18:06.896Z,16.06
2019-05-19T23:20:35.855Z,15.95
2019-05-19T23:25:45.116Z,15.96
2019-05-19T23:28:14.166Z,15.91
2019-05-19T23:30:43.558Z,15.84
2019-05-19T23:33:12.649Z,15.83
2019-05-19T23:35:41.657Z,15.79
2019-05-19T23:38:11.265Z,15.78
2019-05-19T23:40:40.535Z,15.72
2019-05-19T23:45:56.052Z,15.72
2019-05-19T23:48:25.449Z,15.67
2019-05-19T23:50:54.121Z,15.61
2019-05-19T23:53:23.601Z,15.60
2019-05-19T23:58:32.487Z,15.56
